Time;durP1;ratioP1;P1;durP2;ratioP2;P2;SDS_P1;SDS_P2;PMS_P1;PMS_P2;Temp;Humidity;BMP_temperature;BMP_pressure;BME280_temperature;BME280_humidity;BME280_pressure;Samples;Min_cycle;Max_cycle;Signal;HPM_P1;HPM_P2
2022/01/07 00:00:07;;;;;;;;;10.50;9.25;;;;;20.24;32.91;101325.06;5056333;28;46437;-63
2022/01/07 00:02:32;;;;;;;;;10.25;8.75;;;;;20.26;32.95;101317.94;5038273;28;45968;-63
2022/01/07 00:04:58;;;;;;;;;8.25;7.00;;;;;20.28;32.48;101320.53;5056702;28;45296;-63
2022/01/07 00:07:23;;;;;;;;;10.50;8.50;;;;;20.28;32.77;101315.25;5056800;28;45614;-63
2022/01/07 00:09:48;;;;;;;;;12.75;9.00;;;;;20.28;32.62;101313.47;5056283;28;46226;-63
2022/01/07 00:12:17;;;;;;;;;9.00;8.50;;;;;20.29;32.97;101307.28;5056443;28;45379;-63
2022/01/07 00:14:42;;;;;;;;;9.50;7.75;;;;;20.29;32.97;101311.69;5056605;28;45213;-63
2022/01/07 00:17:07;;;;;;;;;9.75;8.00;;;;;20.29;32.96;101298.50;5056665;28;45561;-62
2022/01/07 00:19:33;;;;;;;;;8.00;8.00;;;;;20.29;32.88;101282.72;5056183;28;46054;-63
2022/01/07 00:21:58;;;;;;;;;8.50;8.50;;;;;20.30;32.96;101279.16;5056160;28;45403;-63
2022/01/07 00:24:23;;;;;;;;;7.50;7.50;;;;;20.30;32.65;101276.53;5056460;28;45389;-63
2022/01/07 00:26:49;;;;;;;;;8.00;8.00;;;;;20.29;32.67;101283.59;5056736;28;45575;-63
2022/01/07 00:29:14;;;;;;;;;10.75;9.00;;;;;20.28;32.61;101274.00;5056129;28;45460;-63
2022/01/07 00:31:39;;;;;;;;;9.50;7.50;;;;;20.27;32.48;101258.28;5059099;28;45308;-63
2022/01/07 00:34:05;;;;;;;;;7.25;6.75;;;;;20.27;32.59;101248.59;5059743;28;45472;-62
2022/01/07 00:36:30;;;;;;;;;9.00;7.25;;;;;20.28;32.38;101252.09;5059990;28;45259;-63
2022/01/07 00:38:55;;;;;;;;;10.00;8.00;;;;;20.26;32.73;101249.50;5059577;28;45368;-63
2022/01/07 00:41:21;;;;;;;;;8.50;7.25;;;;;20.22;32.39;101238.28;5059883;28;45353;-63
2022/01/07 00:43:48;;;;;;;;;6.25;6.25;;;;;20.25;32.86;101242.53;5059882;28;45488;-64
2022/01/07 00:46:13;;;;;;;;;9.00;9.00;;;;;20.25;32.57;101247.81;5059870;28;45525;-63
2022/01/07 00:48:39;;;;;;;;;9.50;7.50;;;;;20.22;33.00;101237.44;5041226;28;46039;-63
2022/01/07 00:51:04;;;;;;;;;8.25;7.25;;;;;20.23;32.84;101233.84;5059527;28;45320;-63
2022/01/07 00:53:29;;;;;;;;;8.50;8.00;;;;;20.23;32.77;101239.13;5041537;28;45628;-63
2022/01/07 00:55:55;;;;;;;;;8.25;6.00;;;;;20.22;33.03;101242.72;5059632;28;45237;-63
2022/01/07 00:58:20;;;;;;;;;7.50;7.50;;;;;20.21;32.48;101247.09;5059643;28;45381;-63
2022/01/07 01:00:45;;;;;;;;;10.00;7.75;;;;;20.21;32.54;101235.72;5059183;28;45343;-60
2022/01/07 01:03:11;;;;;;;;;11.00;7.00;;;;;20.20;32.99;101232.22;5059379;28;45236;-60
2022/01/07 01:05:36;;;;;;;;;10.25;6.25;;;;;20.20;32.53;101228.75;5059373;28;45273;-61
2022/01/07 01:08:02;;;;;;;;;6.25;6.25;;;;;20.19;33.01;101230.53;5058934;28;46570;-62
2022/01/07 01:10:28;;;;;;;;;6.25;6.25;;;;;20.16;32.66;101230.69;5059299;28;45412;-61
2022/01/07 01:12:55;;;;;;;;;6.00;5.00;;;;;20.16;32.83;101233.31;5059607;28;45368;-60
2022/01/07 01:15:23;;;;;;;;;5.25;5.25;;;;;20.15;32.95;101226.34;5059831;28;45516;-59
2022/01/07 01:17:50;;;;;;;;;7.00;7.00;;;;;20.16;32.99;101232.47;5058868;28;46494;-59
2022/01/07 01:20:16;;;;;;;;;8.25;7.25;;;;;20.14;33.02;101226.41;5059168;28;45723;-59
2022/01/07 01:22:41;;;;;;;;;7.75;7.00;;;;;20.12;32.55;101226.50;5059038;28;45448;-59
2022/01/07 01:25:07;;;;;;;;;6.75;6.00;;;;;20.13;32.71;101232.59;5059202;28;45494;-59
2022/01/07 01:27:33;;;;;;;;;6.00;5.25;;;;;20.11;32.60;101226.56;5058884;28;47159;-62
2022/01/07 01:30:01;;;;;;;;;8.25;5.00;;;;;20.08;32.67;101220.53;5059040;28;45456;-62
2022/01/07 01:32:26;;;;;;;;;8.00;7.00;;;;;20.09;32.69;101231.88;5059043;28;45257;-62
2022/01/07 01:34:52;;;;;;;;;7.75;6.00;;;;;20.07;33.10;101221.44;5041568;28;45566;-63
2022/01/07 01:37:17;;;;;;;;;5.00;5.00;;;;;20.05;32.72;101223.28;5057511;28;45423;-62
2022/01/07 01:39:43;;;;;;;;;5.75;5.75;;;;;20.02;32.68;101227.84;5058860;28;45253;-64
2022/01/07 01:42:08;;;;;;;;;7.00;6.25;;;;;20.03;32.89;101226.94;5057949;28;45605;-64
2022/01/07 01:44:33;;;;;;;;;5.25;4.00;;;;;20.01;32.85;101219.09;5058932;28;45183;-64
2022/01/07 01:46:59;;;;;;;;;7.00;6.00;;;;;20.02;33.11;101226.06;5058425;28;46160;-64
2022/01/07 01:49:25;;;;;;;;;5.00;5.00;;;;;20.01;32.96;101216.44;5058912;28;45212;-63
2022/01/07 01:51:50;;;;;;;;;5.50;5.00;;;;;20.00;33.29;101238.47;5058728;28;45304;-63
2022/01/07 01:54:16;;;;;;;;;6.00;4.00;;;;;19.97;33.16;101212.28;5040829;28;46037;-63
2022/01/07 01:56:42;;;;;;;;;6.00;6.00;;;;;19.98;33.18;101228.91;5058374;28;45396;-63
2022/01/07 01:59:08;;;;;;;;;4.00;4.00;;;;;19.96;32.67;101236.00;5040252;28;45831;-63
2022/01/07 02:01:34;;;;;;;;;6.75;5.00;;;;;19.93;33.06;101210.72;5058395;28;45360;-63
2022/01/07 02:04:00;;;;;;;;;7.00;7.00;;;;;19.95;32.91;101202.75;5058577;28;45590;-63
2022/01/07 02:06:26;;;;;;;;;5.00;5.00;;;;;19.91;32.79;101213.41;5058633;28;46202;-63
2022/01/07 02:08:52;;;;;;;;;5.75;4.25;;;;;19.90;33.27;101214.34;5058535;28;45297;-63
2022/01/07 02:11:17;;;;;;;;;6.00;6.00;;;;;19.90;33.00;101206.44;5058295;28;45432;-63
2022/01/07 02:13:45;;;;;;;;;5.25;4.50;;;;;19.88;32.76;101213.56;5040294;28;45233;-64
2022/01/07 02:16:10;;;;;;;;;4.50;4.50;;;;;19.89;32.88;101203.91;5056676;28;46814;-63
2022/01/07 02:18:36;;;;;;;;;6.00;3.00;;;;;19.86;33.11;101196.97;5040009;28;45309;-63
2022/01/07 02:21:02;;;;;;;;;6.00;4.50;;;;;19.86;33.29;101201.41;5058173;28;45170;-63
2022/01/07 02:23:27;;;;;;;;;7.75;5.50;;;;;19.85;33.26;101194.41;5058854;28;45806;-64
2022/01/07 02:25:56;;;;;;;;;5.00;5.00;;;;;19.85;32.79;101191.78;5058315;28;45733;-64
2022/01/07 02:28:23;;;;;;;;;4.00;4.00;;;;;19.84;33.33;101184.81;5058435;28;45312;-63
2022/01/07 02:30:48;;;;;;;;;6.50;5.50;;;;;19.81;33.01;101179.69;5058149;28;45225;-62
2022/01/07 02:33:14;;;;;;;;;6.75;4.25;;;;;19.81;33.18;101177.91;5058209;28;45211;-63
2022/01/07 02:35:45;;;;;;;;;6.25;4.75;;;;;19.80;32.99;101172.72;5057866;28;45229;-63
2022/01/07 02:38:10;;;;;;;;;4.75;4.75;;;;;19.78;33.00;101176.28;5057519;28;45434;-62
2022/01/07 02:40:36;;;;;;;;;6.25;4.50;;;;;19.81;33.35;101177.06;5057850;28;45442;-63
2022/01/07 02:43:01;;;;;;;;;5.50;5.00;;;;;19.80;33.32;101168.31;5057983;28;45454;-63
2022/01/07 02:45:27;;;;;;;;;8.00;5.00;;;;;19.79;33.01;101161.34;5039914;28;47054;-62
2022/01/07 02:47:57;;;;;;;;;4.25;4.25;;;;;19.76;33.25;101162.34;5057690;28;45323;-62
2022/01/07 02:50:27;;;;;;;;;7.00;5.00;;;;;19.76;33.33;101146.56;5058162;28;45422;-63
2022/01/07 02:52:53;;;;;;;;;4.00;4.00;;;;;19.75;33.29;101157.16;5057898;28;45326;-63
2022/01/07 02:55:20;;;;;;;;;6.75;5.75;;;;;19.75;33.05;101151.88;5057475;28;46475;-63
2022/01/07 02:57:45;;;;;;;;;5.00;5.00;;;;;19.73;33.41;101151.97;5057528;28;45301;-63
2022/01/07 03:00:12;;;;;;;;;5.25;5.00;;;;;19.73;33.19;101151.13;5057568;28;45277;-63
2022/01/07 03:02:37;;;;;;;;;3.00;3.00;;;;;19.71;33.40;101159.06;5057597;28;45157;-63
2022/01/07 03:05:03;;;;;;;;;5.50;4.25;;;;;19.72;33.45;101155.53;5057352;28;46523;-63
2022/01/07 03:07:29;;;;;;;;;4.00;3.75;;;;;19.70;33.43;101162.63;5057709;28;45373;-63
2022/01/07 03:09:54;;;;;;;;;5.25;5.00;;;;;19.71;33.43;101161.72;5057893;28;45459;-63
2022/01/07 03:12:20;;;;;;;;;6.50;5.25;;;;;19.70;33.53;101151.28;5057607;28;45405;-63
2022/01/07 03:14:48;;;;;;;;;5.50;4.25;;;;;19.70;33.19;101162.63;5057258;28;46034;-63
2022/01/07 03:17:13;;;;;;;;;4.75;4.25;;;;;19.69;33.14;101166.19;5038853;28;45852;-62
2022/01/07 03:19:39;;;;;;;;;4.75;4.75;;;;;19.68;33.13;101148.69;5039327;28;45361;-63
2022/01/07 03:22:04;;;;;;;;;4.00;4.00;;;;;19.67;33.28;101147.00;5057314;28;45450;-63
2022/01/07 03:24:29;;;;;;;;;4.00;3.00;;;;;19.66;33.33;101152.31;5057294;28;46279;-63
2022/01/07 03:26:55;;;;;;;;;4.00;4.00;;;;;19.67;33.57;101154.03;5057036;28;45297;-63
2022/01/07 03:29:20;;;;;;;;;5.00;5.00;;;;;19.65;33.50;101154.13;5057098;28;45283;-63
2022/01/07 03:31:45;;;;;;;;;5.00;3.50;;;;;19.65;33.57;101154.13;5057404;28;45594;-63
2022/01/07 03:34:11;;;;;;;;;4.50;3.75;;;;;19.65;33.42;101148.84;5056878;28;46066;-63
2022/01/07 03:36:36;;;;;;;;;5.00;3.25;;;;;19.63;33.28;101137.56;5056975;28;45250;-63
2022/01/07 03:39:03;;;;;;;;;5.00;4.00;;;;;19.64;33.55;101147.16;5056946;28;45362;-62
2022/01/07 03:41:28;;;;;;;;;3.50;3.50;;;;;19.63;33.83;101129.66;5057216;28;45501;-63
2022/01/07 03:43:54;;;;;;;;;4.00;4.00;;;;;19.63;33.62;101140.19;5056656;28;45402;-63
2022/01/07 03:46:20;;;;;;;;;3.50;3.00;;;;;19.62;33.31;101138.47;5056791;28;45399;-62
2022/01/07 03:48:45;;;;;;;;;2.25;2.25;;;;;19.62;33.83;101138.47;5056903;28;45336;-64
2022/01/07 03:51:10;;;;;;;;;3.50;3.50;;;;;19.60;33.43;101128.03;5056852;28;45447;-64
2022/01/07 03:53:36;;;;;;;;;6.00;4.75;;;;;19.60;33.32;101132.44;5056650;28;47188;-63
2022/01/07 03:56:02;;;;;;;;;1.00;0.00;;;;;19.60;33.81;101130.66;5057126;28;45409;-63
2022/01/07 03:58:27;;;;;;;;;4.75;3.00;;;;;19.56;33.22;101123.84;5057149;28;45396;-64
2022/01/07 04:00:53;;;;;;;;;3.50;3.50;;;;;19.58;33.32;101122.00;5056882;28;45423;-64
2022/01/07 04:03:19;;;;;;;;;3.25;3.25;;;;;19.58;33.79;101132.50;5038434;28;47451;-63
2022/01/07 04:05:45;;;;;;;;;3.75;3.75;;;;;19.58;33.34;101127.25;5056099;28;45233;-63
2022/01/07 04:08:11;;;;;;;;;3.75;2.25;;;;;19.57;33.73;101119.41;5038312;28;45189;-66
2022/01/07 04:10:38;;;;;;;;;4.25;3.75;;;;;19.57;33.86;101119.41;5038688;28;45395;-62
2022/01/07 04:13:04;;;;;;;;;5.00;3.00;;;;;19.55;33.89;101110.78;5056359;28;45434;-61
2022/01/07 04:15:29;;;;;;;;;5.00;3.25;;;;;19.56;33.74;101104.59;5056815;28;45284;-62
2022/01/07 04:17:55;;;;;;;;;3.25;3.00;;;;;19.54;33.79;101093.28;5056437;28;45519;-63
2022/01/07 04:20:27;;;;;;;;;2.00;2.00;;;;;19.51;33.60;101098.69;5038553;28;45433;-64
2022/01/07 04:22:53;;;;;;;;;5.25;4.00;;;;;19.53;33.36;101096.84;5056200;28;46377;-62
2022/01/07 04:25:21;;;;;;;;;4.25;3.00;;;;;19.52;33.49;101105.66;5038266;28;45413;-64
2022/01/07 04:27:51;;;;;;;;;4.00;2.75;;;;;19.51;33.74;101099.56;5056349;28;45281;-62
2022/01/07 04:30:19;;;;;;;;;3.00;3.00;;;;;19.50;33.68;101096.97;5056617;28;45281;-64
2022/01/07 04:32:44;;;;;;;;;3.00;3.00;;;;;19.51;33.97;101099.56;5056036;28;45399;-63
2022/01/07 04:35:11;;;;;;;;;6.00;4.00;;;;;19.51;33.90;101096.06;5056049;28;45471;-64
2022/01/07 04:37:38;;;;;;;;;2.00;2.00;;;;;19.50;33.31;101099.59;5056279;28;45281;-64
2022/01/07 04:40:05;;;;;;;;;3.50;2.75;;;;;19.49;33.75;101096.13;5038590;28;45869;-60
2022/01/07 04:42:31;;;;;;;;;4.00;4.00;;;;;19.50;33.59;101089.09;5056074;28;45508;-63
2022/01/07 04:44:56;;;;;;;;;3.00;3.00;;;;;19.51;33.81;101099.56;5056156;28;45333;-65
2022/01/07 04:47:22;;;;;;;;;2.25;2.25;;;;;19.53;33.76;101096.84;5056110;28;45178;-64
2022/01/07 04:49:47;;;;;;;;;2.25;2.25;;;;;19.55;33.91;101105.50;5056340;28;45184;-64
2022/01/07 04:52:13;;;;;;;;;5.00;2.00;;;;;19.58;34.14;101103.59;5055566;28;45594;-64
2022/01/07 04:54:38;;;;;;;;;4.75;2.00;;;;;19.64;34.08;101107.72;5055794;28;45431;-63
2022/01/07 04:57:04;;;;;;;;;4.00;4.00;;;;;19.69;34.12;101103.06;5056331;28;45402;-64
2022/01/07 04:59:29;;;;;;;;;2.50;2.50;;;;;19.75;33.85;101115.94;5056138;28;45366;-63
2022/01/07 05:01:55;;;;;;;;;3.00;3.00;;;;;19.78;34.08;101097.41;5037609;28;47875;-64
2022/01/07 05:04:20;;;;;;;;;4.25;3.75;;;;;19.84;33.96;101092.75;5055693;28;45541;-62
2022/01/07 05:06:47;;;;;;;;;4.00;2.25;;;;;19.90;34.11;101098.59;5055846;28;45331;-63
2022/01/07 05:09:16;;;;;;;;;2.25;2.25;;;;;19.96;34.07;101097.44;5055810;28;45558;-62
2022/01/07 05:11:42;;;;;;;;;2.50;2.00;;;;;20.01;33.81;101094.59;5055597;28;46245;-63
2022/01/07 05:14:08;;;;;;;;;2.00;2.00;;;;;20.04;33.67;101091.81;5055467;28;45496;-62
2022/01/07 05:16:33;;;;;;;;;2.00;2.00;;;;;20.08;33.43;101083.69;5055962;28;45457;-63
2022/01/07 05:18:59;;;;;;;;;3.25;3.00;;;;;20.10;33.85;101085.41;5059047;28;45378;-62
2022/01/07 05:21:24;;;;;;;;;3.00;3.00;;;;;20.15;33.47;101088.63;5058800;28;45397;-64
2022/01/07 05:23:49;;;;;;;;;3.00;2.00;;;;;20.17;33.50;101092.06;5058763;28;45371;-63
2022/01/07 05:26:15;;;;;;;;;3.50;2.50;;;;;20.18;33.52;101088.50;5059120;28;45393;-62
2022/01/07 05:28:40;;;;;;;;;2.50;2.50;;;;;20.21;33.96;101098.88;5059112;28;45591;-63
2022/01/07 05:31:06;;;;;;;;;2.00;2.00;;;;;20.21;33.63;101094.44;5057959;28;45688;-63
2022/01/07 05:33:31;;;;;;;;;4.00;2.00;;;;;20.23;33.89;101099.63;5058964;28;45504;-62
2022/01/07 05:35:57;;;;;;;;;3.75;3.50;;;;;20.23;34.17;101102.25;5058829;28;45863;-63
2022/01/07 05:38:22;;;;;;;;;2.00;2.00;;;;;20.24;33.52;101110.09;5058922;28;45308;-62
2022/01/07 05:40:47;;;;;;;;;3.00;3.00;;;;;20.24;33.65;101096.06;5058484;28;46696;-61
2022/01/07 05:43:13;;;;;;;;;4.00;3.00;;;;;20.25;34.03;101095.16;5058524;28;45360;-61
2022/01/07 05:45:40;;;;;;;;;2.00;2.00;;;;;20.26;33.67;101094.22;5058669;28;45213;-60
2022/01/07 05:48:06;;;;;;;;;3.00;2.00;;;;;20.27;33.46;101092.47;5059079;28;45154;-63
2022/01/07 05:50:31;;;;;;;;;0.50;0.50;;;;;20.28;33.64;101089.72;5040308;28;46926;-63
2022/01/07 05:52:56;;;;;;;;;2.00;2.00;;;;;20.27;34.51;101087.19;5058429;28;45241;-63
2022/01/07 05:55:22;;;;;;;;;2.00;2.00;;;;;20.27;33.78;101087.19;5058569;28;45236;-64
2022/01/07 05:57:47;;;;;;;;;3.50;3.00;;;;;20.26;34.03;101086.31;5058565;28;45579;-60
2022/01/07 06:00:13;;;;;;;;;2.75;2.75;;;;;20.26;33.58;101091.59;5057967;28;54361;-60
2022/01/07 06:02:39;;;;;;;;;1.75;1.75;;;;;20.26;33.55;101085.50;5058363;28;45328;-63
2022/01/07 06:05:05;;;;;;;;;1.50;1.50;;;;;20.26;33.87;101086.31;5040723;28;45481;-62
2022/01/07 06:07:30;;;;;;;;;2.00;2.00;;;;;20.26;33.68;101083.69;5040298;28;45409;-61
2022/01/07 06:09:56;;;;;;;;;2.75;2.00;;;;;20.24;33.75;101085.53;5058199;28;45365;-62
2022/01/07 06:12:21;;;;;;;;;4.00;3.00;;;;;20.23;33.43;101091.72;5058074;28;45324;-63
2022/01/07 06:14:46;;;;;;;;;2.00;2.00;;;;;20.22;33.57;101090.06;5058317;28;45468;-62
2022/01/07 06:17:12;;;;;;;;;2.25;1.75;;;;;20.23;34.12;101078.56;5058462;28;45487;-63
2022/01/07 06:19:38;;;;;;;;;2.25;2.25;;;;;20.23;33.64;101097.00;5058301;28;45329;-64
2022/01/07 06:22:04;;;;;;;;;2.00;2.00;;;;;20.21;33.30;101094.44;5058170;28;45924;-63
2022/01/07 06:24:29;;;;;;;;;3.75;2.25;;;;;20.20;33.42;101092.75;5058125;28;45437;-63
2022/01/07 06:26:55;;;;;;;;;1.00;1.00;;;;;20.20;33.59;101098.00;5058335;28;45312;-63
2022/01/07 06:29:21;;;;;;;;;1.00;1.00;;;;;20.19;33.52;101111.25;5057545;28;45332;-61
2022/01/07 06:31:46;;;;;;;;;1.50;1.50;;;;;20.19;33.68;101108.63;5058002;28;45246;-63
2022/01/07 06:34:12;;;;;;;;;2.00;2.00;;;;;20.19;33.53;101108.63;5058000;28;45340;-63
2022/01/07 06:36:37;;;;;;;;;4.50;2.75;;;;;20.18;33.46;101109.56;5058516;28;45252;-63
2022/01/07 06:39:03;;;;;;;;;1.00;1.00;;;;;20.17;33.58;101107.84;5057831;28;46450;-62
2022/01/07 06:41:28;;;;;;;;;2.00;1.00;;;;;20.16;33.72;101098.25;5056505;28;45383;-63
2022/01/07 06:43:54;;;;;;;;;3.50;2.25;;;;;20.15;33.49;101091.28;5057879;28;45331;-62
2022/01/07 06:46:19;;;;;;;;;2.50;1.25;;;;;20.16;34.08;101095.59;5057903;28;45250;-62
2022/01/07 06:48:45;;;;;;;;;3.00;1.50;;;;;20.14;33.82;101092.19;5057487;28;45442;-61
2022/01/07 06:51:10;;;;;;;;;2.00;2.00;;;;;20.14;34.21;101094.81;5057855;28;45802;-63
2022/01/07 06:53:36;;;;;;;;;2.25;2.25;;;;;20.13;33.96;101091.34;5039854;28;45899;-62
2022/01/07 06:56:03;;;;;;;;;5.75;4.00;;;;;20.12;33.74;101088.81;5039762;28;45371;-61
2022/01/07 06:58:29;;;;;;;;;3.00;3.00;;;;;20.07;33.06;101087.25;5057291;28;46945;-61
2022/01/07 07:00:55;;;;;;;;;2.00;2.00;;;;;19.97;32.88;101074.59;5057242;28;45498;-60
2022/01/07 07:03:20;;;;;;;;;3.00;3.00;;;;;19.85;33.16;101078.66;5057479;28;45264;-61
2022/01/07 07:05:45;;;;;;;;;4.00;2.75;;;;;19.73;32.78;101088.84;5057607;28;45392;-62
2022/01/07 07:08:11;;;;;;;;;3.00;3.00;;;;;19.64;32.79;101091.94;5057212;28;46254;-62
2022/01/07 07:10:36;;;;;;;;;4.00;4.00;;;;;19.54;32.87;101098.56;5057459;28;45296;-59
2022/01/07 07:13:02;;;;;;;;;3.00;3.00;;;;;19.45;32.63;101105.09;5057465;28;45266;-62
2022/01/07 07:15:28;;;;;;;;;3.00;2.25;;;;;19.32;32.94;101104.81;5057595;28;45443;-61
2022/01/07 07:17:54;;;;;;;;;3.75;3.75;;;;;19.22;32.94;101103.53;5057138;28;46540;-61
2022/01/07 07:20:19;;;;;;;;;2.00;2.00;;;;;19.13;32.87;101117.91;5057005;28;45419;-62
2022/01/07 07:22:45;;;;;;;;;3.00;3.00;;;;;19.05;33.16;101115.63;5057204;28;45340;-59
2022/01/07 07:25:10;;;;;;;;;3.00;3.00;;;;;18.98;33.18;101116.84;5058722;28;45251;-61
2022/01/07 07:27:36;;;;;;;;;4.00;3.25;;;;;18.97;33.44;101115.13;5056893;28;46488;-60
2022/01/07 07:30:07;;;;;;;;;4.00;3.00;;;;;18.96;33.67;101111.63;5057052;28;45429;-62
2022/01/07 07:32:33;;;;;;;;;6.25;1.50;;;;;18.99;33.70;101111.50;5057154;28;45315;-59
2022/01/07 07:35:13;;;;;;;;;3.50;2.25;;;;;19.03;33.64;101114.84;5057116;28;45490;-61
2022/01/07 07:37:38;;;;;;;;;3.75;2.00;;;;;19.06;33.47;101127.84;5057182;28;46339;-61
2022/01/07 07:40:04;;;;;;;;;3.00;3.00;;;;;19.08;33.72;101120.75;5055943;28;45313;-61
2022/01/07 07:42:30;;;;;;;;;2.00;2.00;;;;;19.10;33.61;101118.91;5038853;28;45434;-62
2022/01/07 07:44:55;;;;;;;;;2.75;2.75;;;;;19.14;33.56;101141.50;5056834;28;45226;-62
2022/01/07 07:47:21;;;;;;;;;1.50;1.50;;;;;19.16;33.57;101136.19;5038445;28;45485;-61
2022/01/07 07:49:46;;;;;;;;;3.50;1.25;;;;;19.17;33.76;101140.53;5038702;28;45679;-60
2022/01/07 07:52:12;;;;;;;;;2.75;2.00;;;;;19.21;33.89;101141.22;5056963;28;45219;-61
2022/01/07 07:54:37;;;;;;;;;2.00;2.00;;;;;19.22;33.64;101137.69;5056074;28;45625;-61
2022/01/07 07:57:03;;;;;;;;;2.50;2.00;;;;;19.25;33.94;101150.66;5056657;28;45392;-58
2022/01/07 07:59:29;;;;;;;;;2.75;2.25;;;;;19.26;34.19;101149.75;5056422;28;45331;-61
2022/01/07 08:01:54;;;;;;;;;3.25;2.00;;;;;19.26;33.80;101155.88;5056595;28;45284;-61
2022/01/07 08:04:21;;;;;;;;;2.25;2.25;;;;;19.28;33.63;101156.66;5038756;28;45343;-61
2022/01/07 08:06:46;;;;;;;;;1.75;1.50;;;;;19.30;34.01;101161.84;5038353;28;47643;-58
2022/01/07 08:09:13;;;;;;;;;3.00;2.00;;;;;19.29;34.16;101157.50;5056637;28;45373;-61
2022/01/07 08:11:49;;;;;;;;;1.25;1.25;;;;;19.31;34.20;101155.66;5056523;28;45213;-62
2022/01/07 08:17:02;;;;;;;;;4.25;2.75;;;;;19.33;34.11;101145.94;5056278;28;45897;-60
2022/01/07 08:19:27;;;;;;;;;3.00;1.50;;;;;19.33;34.03;101148.56;5056297;28;45839;-59
2022/01/07 08:21:52;;;;;;;;;1.00;1.00;;;;;19.31;34.28;101148.63;5056422;28;45304;-60
2022/01/07 08:24:18;;;;;;;;;3.00;3.00;;;;;19.34;34.29;101149.41;5055524;28;45738;-52
2022/01/07 08:26:44;;;;;;;;;2.00;1.00;;;;;19.33;34.17;101137.19;5056556;28;45379;-51
2022/01/07 08:29:11;;;;;;;;;2.50;2.00;;;;;19.35;34.48;101144.06;5038018;28;45769;-54
2022/01/07 08:36:50;;;;;;;;;3.00;1.00;;;;;19.35;34.65;101145.84;5056245;28;45297;-52
2022/01/07 08:39:15;;;;;;;;;2.25;2.00;;;;;19.32;34.15;101138.97;5056173;28;45339;-53
2022/01/07 08:41:42;;;;;;;;;1.00;1.00;;;;;19.36;34.18;101147.56;5056583;28;45364;-53
2022/01/07 08:44:09;;;;;;;;;2.00;2.00;;;;;19.35;34.59;101144.06;5056402;28;45475;-54
2022/01/07 08:46:38;;;;;;;;;3.25;2.00;;;;;19.34;34.26;101141.53;5038208;28;47783;-49
2022/01/07 08:49:05;;;;;;;;;1.75;1.75;;;;;19.35;34.74;101141.44;5056047;28;45698;-56
2022/01/07 08:51:31;;;;;;;;;1.75;1.75;;;;;19.35;34.61;101140.59;5057397;28;45394;-53
2022/01/07 08:53:57;;;;;;;;;1.00;1.00;;;;;19.37;34.88;101136.97;5059881;28;45249;-53
2022/01/07 08:56:24;;;;;;;;;1.00;1.00;;;;;19.40;34.62;101122.84;5059456;28;45640;-56
2022/01/07 08:58:55;;;;;;;;;1.25;1.25;;;;;19.44;34.65;101095.50;5059371;28;45439;-53
2022/01/07 09:01:21;;;;;;;;;1.75;1.75;;;;;19.44;34.86;101083.22;5059364;28;45242;-52
2022/01/07 09:03:47;;;;;;;;;3.00;1.25;;;;;19.46;34.79;101094.47;5059747;28;45708;-44
2022/01/07 09:06:13;;;;;;;;;1.75;1.00;;;;;19.47;34.56;101093.56;5041033;28;47454;-52
2022/01/07 09:08:38;;;;;;;;;1.00;1.00;;;;;19.50;34.76;101066.31;5040764;28;46506;-54
2022/01/07 09:11:03;;;;;;;;;1.00;1.00;;;;;19.52;35.00;101071.47;5059262;28;45377;-56
2022/01/07 09:13:29;;;;;;;;;1.50;1.50;;;;;19.53;34.58;101094.22;5059241;28;45575;-54
2022/01/07 09:15:54;;;;;;;;;2.00;1.00;;;;;19.54;34.67;101099.38;5058799;28;46173;-48
2022/01/07 09:18:21;;;;;;;;;2.25;1.25;;;;;19.57;34.32;101119.41;5059112;28;45467;-52
2022/01/07 09:20:47;;;;;;;;;1.25;1.25;;;;;19.60;34.58;101127.16;5041312;28;45360;-52
2022/01/07 09:23:14;;;;;;;;;1.75;1.00;;;;;19.62;35.01;101127.97;5059465;28;45426;-49
2022/01/07 09:25:40;;;;;;;;;0.00;0.00;;;;;19.64;34.75;101131.38;5058981;28;45478;-53
2022/01/07 09:28:06;;;;;;;;;2.00;2.00;;;;;19.67;34.95;101130.38;5058933;28;45181;-55
2022/01/07 09:30:33;;;;;;;;;1.25;0.75;;;;;19.69;35.02;101137.25;5059070;28;45540;-51
2022/01/07 09:32:59;;;;;;;;;1.00;1.00;;;;;19.70;35.23;101125.81;5041104;28;45398;-48
2022/01/07 09:35:25;;;;;;;;;0.75;0.75;;;;;19.71;34.99;101135.41;5058753;28;45433;-48
2022/01/07 09:37:50;;;;;;;;;1.25;1.25;;;;;19.72;35.06;101128.38;5058639;28;45332;-52
2022/01/07 09:40:17;;;;;;;;;2.25;1.00;;;;;19.72;35.18;101133.66;5041055;28;45289;-56
2022/01/07 09:43:06;;;;;;;;;1.00;1.00;;;;;19.76;35.04;101145.72;5059033;28;45584;-51
2022/01/07 09:45:34;;;;;;;;;1.50;1.50;;;;;19.74;34.50;101140.53;5058646;28;46075;-55
2022/01/07 09:48:01;;;;;;;;;1.00;1.00;;;;;19.72;34.59;101136.28;5058555;28;45280;-53
2022/01/07 09:50:29;;;;;;;;;0.75;0.75;;;;;19.69;35.06;101137.25;5058719;28;45419;-56
2022/01/07 09:52:55;;;;;;;;;0.50;0.50;;;;;19.69;34.66;101139.88;5058974;28;45213;-48
2022/01/07 09:55:21;;;;;;;;;0.00;0.00;;;;;19.69;35.00;101134.63;5058624;28;46468;-53
2022/01/07 09:57:46;;;;;;;;;0.25;0.25;;;;;19.69;34.63;101124.09;5058895;28;45329;-56
2022/01/07 10:00:13;;;;;;;;;1.00;1.00;;;;;19.70;34.79;101123.19;5058694;28;45393;-57
2022/01/07 10:02:58;;;;;;;;;3.00;1.00;;;;;19.70;35.25;101133.69;5058048;28;45491;-53
2022/01/07 10:05:23;;;;;;;;;0.75;0.75;;;;;19.71;34.55;101122.25;5058506;28;46729;-49
2022/01/07 10:07:48;;;;;;;;;0.00;0.00;;;;;19.72;35.08;101123.13;5058265;28;45462;-50
2022/01/07 10:10:17;;;;;;;;;0.50;0.50;;;;;19.73;35.11;101122.22;5058620;28;45388;-52
2022/01/07 10:13:06;;;;;;;;;1.00;0.00;;;;;19.74;34.97;101111.59;5058618;28;45554;-54
2022/01/07 10:15:33;;;;;;;;;0.50;0.50;;;;;19.77;35.09;101115.84;5040169;28;48136;-55
2022/01/07 10:18:08;;;;;;;;;1.00;1.00;;;;;19.75;35.01;101115.94;5058187;28;45391;-51
2022/01/07 10:20:47;;;;;;;;;0.75;0.75;;;;;19.76;34.77;101122.91;5058502;28;45477;-54
2022/01/07 10:23:17;;;;;;;;;1.25;1.25;;;;;19.77;34.90;101122.00;5058325;28;45457;-52
2022/01/07 10:25:46;;;;;;;;;0.25;0.25;;;;;19.75;34.72;101110.69;5057817;28;45398;-54
2022/01/07 10:28:18;;;;;;;;;2.00;1.00;;;;;19.74;34.88;101106.34;5057954;28;45900;-56
2022/01/07 10:30:52;;;;;;;;;1.00;0.75;;;;;19.70;34.89;101103.94;5040362;28;45372;-52
2022/01/07 10:33:22;;;;;;;;;2.00;1.00;;;;;19.68;34.86;101097.88;5058684;28;45348;-56
2022/01/07 10:35:50;;;;;;;;;2.75;1.00;;;;;19.66;35.04;101095.34;5058021;28;46516;-57
2022/01/07 10:38:19;;;;;;;;;1.00;0.00;;;;;19.61;34.96;101084.19;5057930;28;45261;-57
2022/01/07 10:40:47;;;;;;;;;2.75;0.75;;;;;19.60;34.79;101087.72;5058005;28;45396;-57
2022/01/07 10:43:33;;;;;;;;;0.75;0.00;;;;;19.58;34.65;101084.31;5058006;28;45248;-57
2022/01/07 10:46:11;;;;;;;;;1.00;1.00;;;;;19.56;34.81;101088.81;5039656;28;47931;-52
2022/01/07 10:48:36;;;;;;;;;0.75;0.00;;;;;19.53;35.20;101081.06;5057813;28;45295;-57
2022/01/07 10:51:09;;;;;;;;;1.00;1.00;;;;;19.53;35.40;101081.91;5057868;28;45400;-55
2022/01/07 10:53:35;;;;;;;;;0.00;0.00;;;;;19.52;35.17;101076.72;5057981;28;45368;-58
2022/01/07 10:56:05;;;;;;;;;1.00;1.00;;;;;19.50;35.30;101086.47;5057506;28;46405;-56
2022/01/07 10:58:49;;;;;;;;;2.25;1.50;;;;;19.48;35.20;101076.03;5057407;28;45391;-55
2022/01/07 11:01:21;;;;;;;;;1.25;0.75;;;;;19.50;34.88;101083.84;5057710;28;45391;-51
2022/01/07 11:03:49;;;;;;;;;1.00;0.75;;;;;19.50;35.65;101086.47;5057849;28;45577;-55
2022/01/07 11:06:15;;;;;;;;;1.00;1.00;;;;;19.47;35.16;101083.03;5057417;28;45409;-55
2022/01/07 11:08:41;;;;;;;;;1.00;0.75;;;;;19.50;35.41;101104.88;5057263;28;45898;-57
2022/01/07 11:11:08;;;;;;;;;0.00;0.00;;;;;19.48;35.03;101083.91;5057507;28;45258;-52
2022/01/07 11:13:35;;;;;;;;;0.00;0.00;;;;;19.47;35.56;101093.56;5057565;28;45599;-54
2022/01/07 11:16:02;;;;;;;;;1.75;0.50;;;;;19.46;35.30;101080.50;5056247;28;45621;-57
2022/01/07 11:18:27;;;;;;;;;1.00;1.00;;;;;19.46;35.23;101083.97;5057295;28;45626;-54
2022/01/07 11:20:58;;;;;;;;;1.00;1.00;;;;;19.46;35.50;101081.34;5039425;28;45254;-57
2022/01/07 11:23:25;;;;;;;;;0.25;0.25;;;;;19.44;35.61;101074.47;5057626;28;45490;-54
2022/01/07 11:26:01;;;;;;;;;2.50;0.50;;;;;19.45;35.48;101066.53;5057359;28;46340;-57
2022/01/07 11:28:27;;;;;;;;;0.50;0.00;;;;;19.44;35.14;101064.81;5057053;28;45360;-55